21:58
Airports
History
Links
Donate
Help keep this website running!
PayPal
Bitcoin
This page is community maintained. The information is intended for PC simulator navigation or reference.
Always use approved charts for navigation.
UT59
Needles Outpost
Needles Outpost (UT59)
Moab, Utah, United States (84532)
4
Lat/Lng:38° 10' 32.96" N / 109° 44' 38.43" W
38.175821 / -109.744009
Elevation:4950'ft / 1509mMSL
ID / ICAO:UT59
Runways:1
Longest:07-25
Dirt 1,368m / 4,488ft
Nearby Weather21:53 GMT 2017-10-18
Nearby weather at KCNY, Canyonlands Field located 40.0 nautical miles from UT59
Altimeter: 30.13
Visibility: 10.0 statute miles
Wind: 0 knots (from 000°)
Temp: 23°c / 73°f
Humidity: 8.7%

METAR: KCNY 182153Z AUTO 00000KT 10SM CLR 23/M12 A3013 RMK AO2 SLP174 T02331117

(Powered by phpweather)
Nearby VORs <50NM
Nearby NDBs
Runway 07 / 25
Dimensions:1367.9 x 18.3m 4488' x 60'ft
Surface:Dirt
Runway 07 [A]Runway 25 [B]
Heading:083°TH 263°TH
Lat:
Lng:
38° 10' 30.25"N
109° 45' 6.49"W
38° 10' 35.66"N
109° 44' 10.38"W
User Notes and Comments
38° 10' 32.96" N / 109° 44' 38.43" W
Distance To
Airport ID:
Nearby Airports
4 Mineral Springs 9.7 NM
UT92 N 352°
4 La Sal Junction 21.0 NM
70V ENE 64°
(R) Caveman Ranch 21.0 NM
UT68 NNE 12°
(R) Sky Ranch 26.8 NM
UT53 NE 36°
(U) MONTICELLO 27.2 NM
U43 SE 127°
(R) Hite 40.0 NM
UT03 WSW 240°
(U) Canyonlands Field 40.0 NM
KCNY ( WX ) N 359°
VFR Chart
Flight Planning at SkyVector.com